sensor_id;sensor_type;location;lat;lon;timestamp;pressure;altitude;pressure_sealevel;temperature;humidity
74242;BME280;62599;49.146;10.426;2023-07-29T00:00:51;95425.16;;;15.51;100.00
74242;BME280;62599;49.146;10.426;2023-07-29T00:03:17;95417.44;;;15.53;100.00
74242;BME280;62599;49.146;10.426;2023-07-29T00:06:21;95421.63;;;15.47;100.00
74242;BME280;62599;49.146;10.426;2023-07-29T00:12:16;95412.47;;;15.59;100.00
74242;BME280;62599;49.146;10.426;2023-07-29T00:27:56;95400.69;;;15.48;100.00
74242;BME280;62599;49.146;10.426;2023-07-29T00:30:24;95399.03;;;15.39;100.00
74242;BME280;62599;49.146;10.426;2023-07-29T00:32:49;95402.03;;;15.31;100.00
74242;BME280;62599;49.146;10.426;2023-07-29T00:35:15;95412.06;;;15.27;100.00
74242;BME280;62599;49.146;10.426;2023-07-29T00:37:40;95406.59;;;15.23;100.00
74242;BME280;62599;49.146;10.426;2023-07-29T00:40:12;95401.53;;;15.22;100.00
74242;BME280;62599;49.146;10.426;2023-07-29T00:42:39;95406.53;;;15.20;100.00
74242;BME280;62599;49.146;10.426;2023-07-29T00:45:05;95407.28;;;15.16;100.00
74242;BME280;62599;49.146;10.426;2023-07-29T00:47:32;95404.94;;;15.15;100.00
74242;BME280;62599;49.146;10.426;2023-07-29T00:49:58;95397.56;;;15.15;100.00
74242;BME280;62599;49.146;10.426;2023-07-29T00:52:23;95400.25;;;15.12;100.00
74242;BME280;62599;49.146;10.426;2023-07-29T00:54:49;95397.06;;;15.06;100.00
74242;BME280;62599;49.146;10.426;2023-07-29T00:57:15;95392.06;;;15.08;100.00
74242;BME280;62599;49.146;10.426;2023-07-29T00:59:41;95395.94;;;15.07;100.00
74242;BME280;62599;49.146;10.426;2023-07-29T01:02:07;95390.84;;;15.06;100.00
74242;BME280;62599;49.146;10.426;2023-07-29T01:04:33;95398.22;;;15.05;100.00
74242;BME280;62599;49.146;10.426;2023-07-29T01:07:16;95393.94;;;15.04;100.00
74242;BME280;62599;49.146;10.426;2023-07-29T01:09:54;95399.31;;;15.01;100.00
74242;BME280;62599;49.146;10.426;2023-07-29T01:15:11;95406.94;;;14.91;100.00
74242;BME280;62599;49.146;10.426;2023-07-29T01:17:46;95402.19;;;14.85;100.00
74242;BME280;62599;49.146;10.426;2023-07-29T01:20:16;95388.84;;;14.73;100.00
74242;BME280;62599;49.146;10.426;2023-07-29T01:22:45;95384.16;;;14.69;100.00
74242;BME280;62599;49.146;10.426;2023-07-29T01:25:11;95386.09;;;14.69;100.00
74242;BME280;62599;49.146;10.426;2023-07-29T01:27:36;95395.72;;;14.66;100.00
74242;BME280;62599;49.146;10.426;2023-07-29T01:30:02;95392.59;;;14.64;100.00
74242;BME280;62599;49.146;10.426;2023-07-29T01:32:30;95387.19;;;14.64;100.00
74242;BME280;62599;49.146;10.426;2023-07-29T01:37:33;95386.41;;;14.64;100.00
74242;BME280;62599;49.146;10.426;2023-07-29T01:40:00;95383.97;;;14.59;100.00
74242;BME280;62599;49.146;10.426;2023-07-29T01:42:25;95377.78;;;14.58;100.00
74242;BME280;62599;49.146;10.426;2023-07-29T01:44:52;95369.38;;;14.63;100.00
74242;BME280;62599;49.146;10.426;2023-07-29T01:47:18;95367.44;;;14.64;100.00
74242;BME280;62599;49.146;10.426;2023-07-29T01:49:43;95362.78;;;14.64;100.00
74242;BME280;62599;49.146;10.426;2023-07-29T01:52:08;95366.66;;;14.63;100.00
74242;BME280;62599;49.146;10.426;2023-07-29T01:54:34;95355.00;;;14.63;100.00
74242;BME280;62599;49.146;10.426;2023-07-29T01:56:59;95351.16;;;14.64;100.00
74242;BME280;62599;49.146;10.426;2023-07-29T01:59:25;95343.81;;;14.64;100.00
74242;BME280;62599;49.146;10.426;2023-07-29T02:01:50;95333.75;;;14.65;100.00
74242;BME280;62599;49.146;10.426;2023-07-29T02:04:15;95339.16;;;14.65;100.00
74242;BME280;62599;49.146;10.426;2023-07-29T02:06:41;95342.66;;;14.65;100.00
74242;BME280;62599;49.146;10.426;2023-07-29T02:09:06;95338.06;;;14.69;100.00
74242;BME280;62599;49.146;10.426;2023-07-29T02:11:32;95328.75;;;14.67;100.00
74242;BME280;62599;49.146;10.426;2023-07-29T02:13:57;95328.75;;;14.67;100.00
74242;BME280;62599;49.146;10.426;2023-07-29T02:16:23;95337.66;;;14.67;100.00
74242;BME280;62599;49.146;10.426;2023-07-29T02:18:49;95331.50;;;14.71;100.00
74242;BME280;62599;49.146;10.426;2023-07-29T02:21:15;95334.94;;;14.67;100.00
74242;BME280;62599;49.146;10.426;2023-07-29T02:23:41;95342.25;;;14.63;100.00
74242;BME280;62599;49.146;10.426;2023-07-29T02:26:06;95337.19;;;14.62;100.00
74242;BME280;62599;49.146;10.426;2023-07-29T02:28:31;95329.47;;;14.64;100.00
74242;BME280;62599;49.146;10.426;2023-07-29T02:31:21;95335.66;;;14.64;100.00
74242;BME280;62599;49.146;10.426;2023-07-29T02:33:47;95340.38;;;14.67;100.00
74242;BME280;62599;49.146;10.426;2023-07-29T02:36:13;95348.13;;;14.69;100.00
74242;BME280;62599;49.146;10.426;2023-07-29T02:38:39;95348.91;;;14.69;100.00
74242;BME280;62599;49.146;10.426;2023-07-29T02:41:05;95345.47;;;14.73;100.00
74242;BME280;62599;49.146;10.426;2023-07-29T02:43:31;95344.31;;;14.74;100.00
74242;BME280;62599;49.146;10.426;2023-07-29T02:45:56;95338.88;;;14.74;100.00
74242;BME280;62599;49.146;10.426;2023-07-29T02:48:22;95344.72;;;14.76;100.00
74242;BME280;62599;49.146;10.426;2023-07-29T02:50:47;95344.72;;;14.76;100.00
74242;BME280;62599;49.146;10.426;2023-07-29T02:53:13;95343.28;;;14.82;100.00
74242;BME280;62599;49.146;10.426;2023-07-29T02:55:41;95340.97;;;14.84;100.00
74242;BME280;62599;49.146;10.426;2023-07-29T02:58:07;95345.66;;;14.87;100.00
74242;BME280;62599;49.146;10.426;2023-07-29T03:00:33;95342.56;;;14.88;100.00
74242;BME280;62599;49.146;10.426;2023-07-29T03:02:59;95334.84;;;14.90;100.00
74242;BME280;62599;49.146;10.426;2023-07-29T03:05:26;95333.75;;;14.95;100.00
74242;BME280;62599;49.146;10.426;2023-07-29T03:07:52;95331.84;;;14.99;100.00
74242;BME280;62599;49.146;10.426;2023-07-29T03:10:17;95341.97;;;15.02;100.00
74242;BME280;62599;49.146;10.426;2023-07-29T03:12:42;95335.72;;;14.98;100.00
74242;BME280;62599;49.146;10.426;2023-07-29T03:15:08;95329.16;;;14.99;100.00
74242;BME280;62599;49.146;10.426;2023-07-29T03:17:33;95324.88;;;14.98;100.00
74242;BME280;62599;49.146;10.426;2023-07-29T03:19:59;95326.03;;;14.97;100.00
74242;BME280;62599;49.146;10.426;2023-07-29T03:22:24;95318.25;;;14.96;100.00
74242;BME280;62599;49.146;10.426;2023-07-29T03:24:49;95327.19;;;14.96;100.00
74242;BME280;62599;49.146;10.426;2023-07-29T03:27:15;95323.31;;;14.97;100.00
74242;BME280;62599;49.146;10.426;2023-07-29T03:29:41;95324.09;;;14.98;100.00
74242;BME280;62599;49.146;10.426;2023-07-29T03:32:07;95328.78;;;15.01;100.00
74242;BME280;62599;49.146;10.426;2023-07-29T03:34:32;95323.31;;;14.97;100.00
74242;BME280;62599;49.146;10.426;2023-07-29T03:36:58;95313.94;;;14.91;100.00
74242;BME280;62599;49.146;10.426;2023-07-29T03:39:24;95313.53;;;14.89;100.00
74242;BME280;62599;49.146;10.426;2023-07-29T03:41:49;95309.69;;;14.90;100.00
74242;BME280;62599;49.146;10.426;2023-07-29T03:44:14;95309.28;;;14.91;100.00
74242;BME280;62599;49.146;10.426;2023-07-29T03:46:40;95305.81;;;14.91;100.00
74242;BME280;62599;49.146;10.426;2023-07-29T03:49:05;95305.53;;;15.00;100.00
74242;BME280;62599;49.146;10.426;2023-07-29T03:51:30;95293.50;;;14.97;100.00
74242;BME280;62599;49.146;10.426;2023-07-29T03:53:56;95291.56;;;14.98;100.00
74242;BME280;62599;49.146;10.426;2023-07-29T03:56:21;95301.25;;;14.99;100.00
74242;BME280;62599;49.146;10.426;2023-07-29T03:58:47;95295.47;;;15.00;100.00
74242;BME280;62599;49.146;10.426;2023-07-29T04:01:15;95303.97;;;14.99;100.00
74242;BME280;62599;49.146;10.426;2023-07-29T04:03:40;95293.94;;;15.03;100.00
74242;BME280;62599;49.146;10.426;2023-07-29T04:06:05;95296.34;;;15.08;100.00
74242;BME280;62599;49.146;10.426;2023-07-29T04:08:31;95281.59;;;15.09;100.00
74242;BME280;62599;49.146;10.426;2023-07-29T04:10:56;95287.81;;;15.09;100.00
74242;BME280;62599;49.146;10.426;2023-07-29T04:13:22;95283.53;;;15.08;100.00
74242;BME280;62599;49.146;10.426;2023-07-29T04:15:48;95283.13;;;15.06;100.00
74242;BME280;62599;49.146;10.426;2023-07-29T04:18:13;95276.19;;;15.09;100.00
74242;BME280;62599;49.146;10.426;2023-07-29T04:20:39;95284.81;;;15.18;100.00
74242;BME280;62599;49.146;10.426;2023-07-29T04:23:04;95277.13;;;15.24;100.00
74242;BME280;62599;49.146;10.426;2023-07-29T04:25:29;95283.41;;;15.31;100.00
74242;BME280;62599;49.146;10.426;2023-07-29T04:27:55;95276.47;;;15.34;100.00
74242;BME280;62599;49.146;10.426;2023-07-29T04:30:22;95273.75;;;15.34;100.00
74242;BME280;62599;49.146;10.426;2023-07-29T04:32:48;95267.50;;;15.30;100.00
74242;BME280;62599;49.146;10.426;2023-07-29T04:35:13;95269.78;;;15.28;100.00
74242;BME280;62599;49.146;10.426;2023-07-29T04:37:40;95271.78;;;15.31;100.00
74242;BME280;62599;49.146;10.426;2023-07-29T04:40:06;95266.75;;;15.33;100.00
74242;BME280;62599;49.146;10.426;2023-07-29T04:42:31;95273.00;;;15.37;100.00
74242;BME280;62599;49.146;10.426;2023-07-29T04:44:57;95264.13;;;15.40;100.00
74242;BME280;62599;49.146;10.426;2023-07-29T04:47:22;95262.22;;;15.44;100.00
74242;BME280;62599;49.146;10.426;2023-07-29T04:49:48;95278.56;;;15.51;100.00
74242;BME280;62599;49.146;10.426;2023-07-29T04:52:14;95268.53;;;15.55;100.00
74242;BME280;62599;49.146;10.426;2023-07-29T04:54:40;95277.50;;;15.59;100.00
74242;BME280;62599;49.146;10.426;2023-07-29T04:57:05;95273.59;;;15.60;100.00
74242;BME280;62599;49.146;10.426;2023-07-29T04:59:31;95267.44;;;15.63;100.00
74242;BME280;62599;49.146;10.426;2023-07-29T05:01:56;95265.56;;;15.68;100.00
74242;BME280;62599;49.146;10.426;2023-07-29T05:04:22;95264.44;;;15.69;100.00
74242;BME280;62599;49.146;10.426;2023-07-29T05:06:48;95249.75;;;15.77;100.00
74242;BME280;62599;49.146;10.426;2023-07-29T05:09:18;95254.03;;;15.78;100.00
74242;BME280;62599;49.146;10.426;2023-07-29T05:11:45;95261.38;;;15.77;100.00
74242;BME280;62599;49.146;10.426;2023-07-29T05:14:15;95262.13;;;15.74;100.00
74242;BME280;62599;49.146;10.426;2023-07-29T05:16:41;95265.59;;;15.71;100.00
74242;BME280;62599;49.146;10.426;2023-07-29T05:19:06;95266.75;;;15.70;100.00
74242;BME280;62599;49.146;10.426;2023-07-29T05:21:32;95276.44;;;15.71;100.00
74242;BME280;62599;49.146;10.426;2023-07-29T05:23:58;95284.25;;;15.73;100.00
74242;BME280;62599;49.146;10.426;2023-07-29T05:26:23;95285.78;;;15.74;100.00
74242;BME280;62599;49.146;10.426;2023-07-29T05:28:49;95288.91;;;15.76;100.00
74242;BME280;62599;49.146;10.426;2023-07-29T05:31:14;95295.91;;;15.77;100.00
74242;BME280;62599;49.146;10.426;2023-07-29T05:33:39;95290.06;;;15.75;100.00
74242;BME280;62599;49.146;10.426;2023-07-29T05:36:06;95270.25;;;15.71;100.00
74242;BME280;62599;49.146;10.426;2023-07-29T05:38:31;95279.91;;;15.68;100.00
74242;BME280;62599;49.146;10.426;2023-07-29T05:40:57;95283.44;;;15.69;100.00
74242;BME280;62599;49.146;10.426;2023-07-29T05:43:24;95279.13;;;15.68;100.00
74242;BME280;62599;49.146;10.426;2023-07-29T05:45:50;95285.34;;;15.68;100.00
74242;BME280;62599;49.146;10.426;2023-07-29T05:48:16;95300.94;;;15.75;100.00
74242;BME280;62599;49.146;10.426;2023-07-29T05:50:42;95315.69;;;15.77;100.00
74242;BME280;62599;49.146;10.426;2023-07-29T05:53:07;95318.09;;;15.86;100.00
74242;BME280;62599;49.146;10.426;2023-07-29T05:55:32;95318.56;;;15.92;100.00
74242;BME280;62599;49.146;10.426;2023-07-29T05:57:58;95328.25;;;15.93;100.00
74242;BME280;62599;49.146;10.426;2023-07-29T06:00:23;95316.63;;;15.92;100.00
74242;BME280;62599;49.146;10.426;2023-07-29T06:02:48;95317.34;;;15.89;100.00
74242;BME280;62599;49.146;10.426;2023-07-29T06:05:14;95322.75;;;15.85;100.00
74242;BME280;62599;49.146;10.426;2023-07-29T06:07:39;95330.50;;;15.83;100.00
74242;BME280;62599;49.146;10.426;2023-07-29T06:10:09;95343.72;;;15.85;100.00
74242;BME280;62599;49.146;10.426;2023-07-29T06:12:37;95344.47;;;15.85;100.00
74242;BME280;62599;49.146;10.426;2023-07-29T06:15:03;95335.13;;;15.83;100.00
74242;BME280;62599;49.146;10.426;2023-07-29T06:17:28;95324.28;;;15.83;100.00
74242;BME280;62599;49.146;10.426;2023-07-29T06:19:54;95311.50;;;15.83;100.00
74242;BME280;62599;49.146;10.426;2023-07-29T06:22:19;95311.88;;;15.85;100.00
74242;BME280;62599;49.146;10.426;2023-07-29T06:24:44;95316.63;;;15.92;100.00
74242;BME280;62599;49.146;10.426;2023-07-29T06:27:10;95303.06;;;15.96;100.00
74242;BME280;62599;49.146;10.426;2023-07-29T06:29:35;95309.38;;;16.10;100.00
74242;BME280;62599;49.146;10.426;2023-07-29T06:32:01;95295.56;;;16.30;100.00
74242;BME280;62599;49.146;10.426;2023-07-29T06:34:26;95307.03;;;16.60;100.00
74242;BME280;62599;49.146;10.426;2023-07-29T06:36:51;95306.47;;;16.96;100.00
74242;BME280;62599;49.146;10.426;2023-07-29T06:41:52;95301.66;;;17.73;100.00
74242;BME280;62599;49.146;10.426;2023-07-29T06:44:17;95298.59;;;17.92;100.00
74242;BME280;62599;49.146;10.426;2023-07-29T06:46:43;95293.91;;;18.11;100.00
74242;BME280;62599;49.146;10.426;2023-07-29T06:49:08;95305.22;;;18.20;100.00
74242;BME280;62599;49.146;10.426;2023-07-29T06:51:33;95308.72;;;18.31;100.00
74242;BME280;62599;49.146;10.426;2023-07-29T06:54:01;95303.28;;;18.31;100.00
74242;BME280;62599;49.146;10.426;2023-07-29T06:56:26;95301.72;;;18.30;100.00
74242;BME280;62599;49.146;10.426;2023-07-29T06:58:52;95298.97;;;18.37;100.00
74242;BME280;62599;49.146;10.426;2023-07-29T07:01:17;95294.28;;;18.52;100.00
74242;BME280;62599;49.146;10.426;2023-07-29T07:03:42;95302.84;;;18.72;100.00
74242;BME280;62599;49.146;10.426;2023-07-29T07:06:08;95286.34;;;19.15;100.00
74242;BME280;62599;49.146;10.426;2023-07-29T07:08:33;95293.94;;;19.56;100.00
74242;BME280;62599;49.146;10.426;2023-07-29T07:10:58;95299.22;;;19.91;100.00
74242;BME280;62599;49.146;10.426;2023-07-29T07:13:24;95301.47;;;20.04;100.00
74242;BME280;62599;49.146;10.426;2023-07-29T07:15:49;95302.25;;;20.01;100.00
74242;BME280;62599;49.146;10.426;2023-07-29T07:18:14;95290.72;;;19.75;100.00
74242;BME280;62599;49.146;10.426;2023-07-29T07:20:40;95302.94;;;19.49;100.00
74242;BME280;62599;49.146;10.426;2023-07-29T07:23:05;95300.63;;;19.47;100.00
74242;BME280;62599;49.146;10.426;2023-07-29T07:25:33;95290.94;;;19.36;100.00
74242;BME280;62599;49.146;10.426;2023-07-29T07:27:59;95294.06;;;19.31;100.00
74242;BME280;62599;49.146;10.426;2023-07-29T07:30:25;95292.84;;;19.35;100.00
74242;BME280;62599;49.146;10.426;2023-07-29T07:32:50;95288.25;;;19.21;100.00
74242;BME280;62599;49.146;10.426;2023-07-29T07:35:15;95285.16;;;19.16;100.00
74242;BME280;62599;49.146;10.426;2023-07-29T07:37:41;95280.41;;;19.31;100.00
74242;BME280;62599;49.146;10.426;2023-07-29T07:40:06;95288.09;;;19.54;100.00
74242;BME280;62599;49.146;10.426;2023-07-29T07:42:32;95280.91;;;19.81;100.00
74242;BME280;62599;49.146;10.426;2023-07-29T07:44:58;95279.19;;;20.05;100.00
74242;BME280;62599;49.146;10.426;2023-07-29T07:47:23;95281.00;;;20.23;100.00
74242;BME280;62599;49.146;10.426;2023-07-29T07:49:48;95285.53;;;20.40;100.00
74242;BME280;62599;49.146;10.426;2023-07-29T07:52:15;95281.53;;;20.55;100.00
74242;BME280;62599;49.146;10.426;2023-07-29T07:54:41;95281.16;;;20.53;100.00
74242;BME280;62599;49.146;10.426;2023-07-29T07:57:06;95271.38;;;20.52;100.00
74242;BME280;62599;49.146;10.426;2023-07-29T07:59:31;95276.81;;;20.56;100.00
74242;BME280;62599;49.146;10.426;2023-07-29T08:01:57;95271.56;;;20.72;100.00
74242;BME280;62599;49.146;10.426;2023-07-29T08:04:22;95275.63;;;20.95;98.50
74242;BME280;62599;49.146;10.426;2023-07-29T08:06:48;95274.72;;;21.05;98.79
74242;BME280;62599;49.146;10.426;2023-07-29T08:09:13;95285.56;;;21.15;98.69
74242;BME280;62599;49.146;10.426;2023-07-29T08:11:38;95279.31;;;21.15;95.21
74242;BME280;62599;49.146;10.426;2023-07-29T08:14:04;95288.16;;;20.96;95.51
74242;BME280;62599;49.146;10.426;2023-07-29T08:16:29;95292.00;;;20.64;97.45
74242;BME280;62599;49.146;10.426;2023-07-29T08:18:54;95300.47;;;20.32;99.86
74242;BME280;62599;49.146;10.426;2023-07-29T08:21:20;95298.72;;;20.04;100.00
74242;BME280;62599;49.146;10.426;2023-07-29T08:23:45;95297.31;;;19.81;100.00
74242;BME280;62599;49.146;10.426;2023-07-29T08:26:11;95307.97;;;19.65;100.00
74242;BME280;62599;49.146;10.426;2023-07-29T08:28:38;95294.00;;;19.41;100.00
74242;BME280;62599;49.146;10.426;2023-07-29T08:31:05;95308.13;;;19.33;100.00
74242;BME280;62599;49.146;10.426;2023-07-29T08:33:31;95310.94;;;19.11;100.00
74242;BME280;62599;49.146;10.426;2023-07-29T08:36:02;95319.94;;;18.97;100.00
74242;BME280;62599;49.146;10.426;2023-07-29T08:38:28;95318.03;;;18.73;100.00
74242;BME280;62599;49.146;10.426;2023-07-29T08:43:47;95320.38;;;18.57;100.00
74242;BME280;62599;49.146;10.426;2023-07-29T08:46:15;95318.03;;;18.48;100.00
74242;BME280;62599;49.146;10.426;2023-07-29T08:48:42;95314.94;;;18.42;100.00
74242;BME280;62599;49.146;10.426;2023-07-29T08:51:09;95321.59;;;18.27;100.00
74242;BME280;62599;49.146;10.426;2023-07-29T08:53:36;95322.72;;;18.22;100.00
74242;BME280;62599;49.146;10.426;2023-07-29T08:56:02;95328.19;;;18.22;100.00
74242;BME280;62599;49.146;10.426;2023-07-29T08:58:28;95331.69;;;18.41;100.00
74242;BME280;62599;49.146;10.426;2023-07-29T09:00:54;95330.88;;;18.69;100.00
74242;BME280;62599;49.146;10.426;2023-07-29T09:03:20;95329.25;;;19.14;100.00
74242;BME280;62599;49.146;10.426;2023-07-29T09:05:48;95334.22;;;19.41;100.00
74242;BME280;62599;49.146;10.426;2023-07-29T09:08:14;95333.78;;;19.46;100.00
74242;BME280;62599;49.146;10.426;2023-07-29T09:10:40;95326.34;;;19.57;100.00
74242;BME280;62599;49.146;10.426;2023-07-29T09:13:06;95318.38;;;19.88;100.00
74242;BME280;62599;49.146;10.426;2023-07-29T09:15:34;95323.91;;;20.29;100.00
74242;BME280;62599;49.146;10.426;2023-07-29T09:18:09;95317.28;;;20.75;100.00
74242;BME280;62599;49.146;10.426;2023-07-29T09:20:34;95316.22;;;21.03;99.31
74242;BME280;62599;49.146;10.426;2023-07-29T09:23:00;95313.50;;;21.37;96.13
74242;BME280;62599;49.146;10.426;2023-07-29T09:25:26;95300.28;;;21.59;94.99
74242;BME280;62599;49.146;10.426;2023-07-29T09:27:56;95301.16;;;21.53;91.83
74242;BME280;62599;49.146;10.426;2023-07-29T09:30:23;95301.00;;;21.33;93.84
74242;BME280;62599;49.146;10.426;2023-07-29T09:32:54;95310.75;;;21.37;94.01
74242;BME280;62599;49.146;10.426;2023-07-29T09:35:20;95317.59;;;21.53;92.23
74242;BME280;62599;49.146;10.426;2023-07-29T09:37:45;95318.38;;;21.84;92.28
74242;BME280;62599;49.146;10.426;2023-07-29T09:40:14;95324.47;;;21.95;88.94
74242;BME280;62599;49.146;10.426;2023-07-29T09:42:47;95316.47;;;22.08;87.58
74242;BME280;62599;49.146;10.426;2023-07-29T09:45:27;95319.97;;;22.59;88.10
74242;BME280;62599;49.146;10.426;2023-07-29T09:47:53;95313.38;;;22.76;85.63
74242;BME280;62599;49.146;10.426;2023-07-29T09:50:23;95322.81;;;22.75;85.03
74242;BME280;62599;49.146;10.426;2023-07-29T09:52:51;95316.63;;;22.48;85.95
74242;BME280;62599;49.146;10.426;2023-07-29T09:55:19;95323.06;;;22.61;85.32
74242;BME280;62599;49.146;10.426;2023-07-29T09:57:45;95319.94;;;22.82;84.83
74242;BME280;62599;49.146;10.426;2023-07-29T10:00:11;95318.38;;;23.05;83.81
74242;BME280;62599;49.146;10.426;2023-07-29T10:02:41;95323.53;;;22.79;82.10
74242;BME280;62599;49.146;10.426;2023-07-29T10:05:10;95331.53;;;22.47;83.48
74242;BME280;62599;49.146;10.426;2023-07-29T10:07:39;95319.47;;;22.17;84.99
74242;BME280;62599;49.146;10.426;2023-07-29T10:10:08;95319.78;;;22.23;85.23
74242;BME280;62599;49.146;10.426;2023-07-29T10:12:35;95325.66;;;22.21;83.69
74242;BME280;62599;49.146;10.426;2023-07-29T10:15:06;95323.41;;;22.40;84.50
74242;BME280;62599;49.146;10.426;2023-07-29T10:17:34;95322.06;;;22.51;84.99
74242;BME280;62599;49.146;10.426;2023-07-29T10:20:00;95327.22;;;22.69;83.66
74242;BME280;62599;49.146;10.426;2023-07-29T10:22:33;95321.41;;;22.67;82.87
74242;BME280;62599;49.146;10.426;2023-07-29T10:25:13;95320.19;;;22.21;80.86
74242;BME280;62599;49.146;10.426;2023-07-29T10:27:47;95317.75;;;21.73;83.18
74242;BME280;62599;49.146;10.426;2023-07-29T10:30:13;95312.97;;;21.50;84.48
74242;BME280;62599;49.146;10.426;2023-07-29T10:32:41;95310.53;;;21.21;85.55
74242;BME280;62599;49.146;10.426;2023-07-29T10:35:08;95322.41;;;21.11;87.15
74242;BME280;62599;49.146;10.426;2023-07-29T10:37:37;95323.13;;;21.15;88.73
74242;BME280;62599;49.146;10.426;2023-07-29T10:40:06;95319.47;;;21.59;87.81
74242;BME280;62599;49.146;10.426;2023-07-29T10:42:32;95330.94;;;22.08;85.33
74242;BME280;62599;49.146;10.426;2023-07-29T10:44:58;95335.38;;;22.53;82.48
74242;BME280;62599;49.146;10.426;2023-07-29T10:47:28;95327.78;;;22.84;78.30
74242;BME280;62599;49.146;10.426;2023-07-29T10:50:18;95325.13;;;23.00;76.13
74242;BME280;62599;49.146;10.426;2023-07-29T10:52:49;95310.75;;;22.93;75.89
74242;BME280;62599;49.146;10.426;2023-07-29T10:58:15;95313.47;;;22.49;77.91
74242;BME280;62599;49.146;10.426;2023-07-29T11:00:44;95323.13;;;22.07;79.45
74242;BME280;62599;49.146;10.426;2023-07-29T11:03:12;95335.69;;;21.77;80.95
74242;BME280;62599;49.146;10.426;2023-07-29T11:08:28;95340.31;;;21.19;84.24
74242;BME280;62599;49.146;10.426;2023-07-29T11:11:07;95330.50;;;20.84;85.49
74242;BME280;62599;49.146;10.426;2023-07-29T11:13:35;95327.53;;;20.67;87.23
74242;BME280;62599;49.146;10.426;2023-07-29T11:16:01;95334.78;;;20.40;89.67
74242;BME280;62599;49.146;10.426;2023-07-29T11:18:29;95332.63;;;20.17;90.84
74242;BME280;62599;49.146;10.426;2023-07-29T11:20:56;95334.72;;;19.95;92.00
74242;BME280;62599;49.146;10.426;2023-07-29T11:23:36;95345.44;;;19.61;96.04
74242;BME280;62599;49.146;10.426;2023-07-29T11:26:02;95346.69;;;19.38;96.92
74242;BME280;62599;49.146;10.426;2023-07-29T11:28:28;95330.38;;;19.24;98.78
74242;BME280;62599;49.146;10.426;2023-07-29T11:30:55;95314.03;;;19.13;100.00
74242;BME280;62599;49.146;10.426;2023-07-29T11:33:23;95308.94;;;19.19;100.00
74242;BME280;62599;49.146;10.426;2023-07-29T11:35:49;95318.16;;;19.54;100.00
74242;BME280;62599;49.146;10.426;2023-07-29T11:38:19;95321.00;;;20.06;100.00
74242;BME280;62599;49.146;10.426;2023-07-29T11:40:59;95308.13;;;20.48;99.04
74242;BME280;62599;49.146;10.426;2023-07-29T11:43:25;95326.69;;;20.74;97.31
74242;BME280;62599;49.146;10.426;2023-07-29T11:45:51;95328.06;;;20.93;96.97
74242;BME280;62599;49.146;10.426;2023-07-29T11:48:17;95325.59;;;21.02;95.77
74242;BME280;62599;49.146;10.426;2023-07-29T11:50:43;95325.56;;;21.06;94.67
74242;BME280;62599;49.146;10.426;2023-07-29T11:53:10;95325.53;;;21.09;97.94
74242;BME280;62599;49.146;10.426;2023-07-29T11:55:36;95332.09;;;21.53;97.40
74242;BME280;62599;49.146;10.426;2023-07-29T11:58:02;95332.41;;;21.90;94.17
74242;BME280;62599;49.146;10.426;2023-07-29T12:00:28;95325.41;;;22.12;89.42
74242;BME280;62599;49.146;10.426;2023-07-29T12:02:54;95319.50;;;22.41;90.74
74242;BME280;62599;49.146;10.426;2023-07-29T12:05:21;95323.06;;;22.61;88.50
74242;BME280;62599;49.146;10.426;2023-07-29T12:07:47;95324.97;;;22.64;86.65
74242;BME280;62599;49.146;10.426;2023-07-29T12:10:13;95325.44;;;22.82;85.90
74242;BME280;62599;49.146;10.426;2023-07-29T12:12:47;95336.69;;;22.92;84.39
74242;BME280;62599;49.146;10.426;2023-07-29T12:15:13;95327.84;;;22.80;83.07
74242;BME280;62599;49.146;10.426;2023-07-29T12:17:44;95327.13;;;22.53;82.53
74242;BME280;62599;49.146;10.426;2023-07-29T12:20:10;95328.78;;;22.47;81.86
74242;BME280;62599;49.146;10.426;2023-07-29T12:22:36;95324.00;;;22.27;82.56
74242;BME280;62599;49.146;10.426;2023-07-29T12:25:02;95316.38;;;22.39;83.70
74242;BME280;62599;49.146;10.426;2023-07-29T12:27:30;95311.63;;;22.66;83.14
74242;BME280;62599;49.146;10.426;2023-07-29T12:29:56;95312.53;;;23.03;82.36
74242;BME280;62599;49.146;10.426;2023-07-29T12:32:25;95302.38;;;23.40;76.40
74242;BME280;62599;49.146;10.426;2023-07-29T12:34:53;95315.22;;;23.46;75.34
74242;BME280;62599;49.146;10.426;2023-07-29T12:37:19;95306.59;;;23.64;76.25
74242;BME280;62599;49.146;10.426;2023-07-29T12:39:44;95306.69;;;23.97;72.95
74242;BME280;62599;49.146;10.426;2023-07-29T12:42:09;95304.03;;;24.10;72.46
74242;BME280;62599;49.146;10.426;2023-07-29T12:44:37;95297.22;;;24.14;69.87
74242;BME280;62599;49.146;10.426;2023-07-29T12:47:04;95285.09;;;24.28;68.37
74242;BME280;62599;49.146;10.426;2023-07-29T12:49:30;95288.38;;;24.39;68.29
74242;BME280;62599;49.146;10.426;2023-07-29T12:51:56;95292.09;;;24.49;68.44
74242;BME280;62599;49.146;10.426;2023-07-29T12:54:22;95289.06;;;24.43;66.03
74242;BME280;62599;49.146;10.426;2023-07-29T12:56:47;95280.44;;;24.25;68.18
74242;BME280;62599;49.146;10.426;2023-07-29T12:59:12;95280.38;;;24.12;67.77
74242;BME280;62599;49.146;10.426;2023-07-29T13:01:38;95275.28;;;23.94;68.48
74242;BME280;62599;49.146;10.426;2023-07-29T13:04:03;95277.31;;;23.74;69.18
74242;BME280;62599;49.146;10.426;2023-07-29T13:06:28;95267.03;;;23.58;69.14
74242;BME280;62599;49.146;10.426;2023-07-29T13:08:54;95276.03;;;23.22;69.79
74242;BME280;62599;49.146;10.426;2023-07-29T13:11:19;95281.88;;;23.04;71.00
74242;BME280;62599;49.146;10.426;2023-07-29T13:13:45;95268.13;;;22.85;70.84